Flight Track Log - Related Links

Times and Time Zones

All times are in EDT time to prevent confusion due to time zone crossing. See the UAL3598 flight status page for this flight to view local times or setup timezone preferences in your user account.

Time Position Orientation Groundspeed Altitude Reporting Facility
EDT Latitude Longitude Course Direction KTS MPH feet Rate Location/Type
Thu 10:14:49 PM 40.7333 -74.1833 333° Northwest 173 199 2,400  Level New York TRACON
Thu 10:15:49 PM 40.7500 -74.2333 294° West 183 211 3,900 1,388 Climbing New York TRACON
Thu 10:16:50 PM 40.7833 -74.2833 311° West 182 209 5,200 1,300 Climbing New York TRACON
Thu 10:17:49 PM 40.8333 -74.3333 323° Northwest 206 237 6,500 1,412 Climbing New York TRACON
Thu 10:18:49 PM 40.8833 -74.3500 346° North 194 223 8,000 1,429 Climbing New York TRACON
Thu 10:19:00 PM 41.0630 -74.3413 342° North  Level FlightAware Approximate
Thu 10:20:00 PM 40.7345 -74.1841 333° Northwest  Level FlightAware Approximate
Thu 10:20:37 PM 40.9686 -74.3903 340° North 188 216 10,500  Level New York Center
Thu 10:21:37 PM 41.0158 -74.4119 341° North 183 211 11,600 750 Climbing New York Center
Thu 10:22:37 PM 41.0733 -74.4400 340° North 193 222 12,000 200 Climbing New York Center
Thu 10:23:37 PM 41.1308 -74.4650 342° North 220 253 12,000  Level New York Center
Thu 10:24:37 PM 41.1986 -74.4964 341° North 231 266 12,000  Level New York Center
Thu 10:25:37 PM 41.2603 -74.5219 343° North 243 280 12,000  Level New York Center
Thu 10:26:37 PM 41.3300 -74.5533 341° North 243 280 12,000  Level New York Center
Thu 10:27:37 PM 41.3897 -74.5817 340° North 243 280 12,000  Level New York Center
Thu 10:28:37 PM 41.4394 -74.6508 314° West 237 273 12,000  Level New York Center
Thu 10:29:37 PM 41.4747 -74.7194 304° West 244 281 12,000  Level New York Center
Thu 10:30:37 PM 41.5156 -74.8047 303° West 249 287 12,000  Level New York Center
Thu 10:31:37 PM 41.5483 -74.8761 302° West 249 287 12,000  Level New York Center
Thu 10:32:37 PM 41.5933 -74.9622 305° West 254 292 12,000  Level New York Center
Thu 10:33:37 PM 41.6322 -75.0394 304° West 254 292 12,000 -100 Level New York Center
Thu 10:34:37 PM 41.6650 -75.1083 303° West 254 292 11,800 -400 Descending New York Center
Thu 10:35:37 PM 41.7058 -75.1886 304° West 259 298 11,200 -400 Descending New York Center
Thu 10:36:37 PM 41.7461 -75.2775 301° West 259 298 11,000 -100 Descending New York Center
Thu 10:37:37 PM 41.7850 -75.3553 304° West 259 298 11,000 -350 Level New York Center
Thu 10:38:37 PM 41.8214 -75.4356 301° West 259 298 10,300 -750 Descending New York Center
Thu 10:39:37 PM 41.8558 -75.5078 303° West 259 298 9,500 -650 Descending New York Center
Thu 10:40:37 PM 41.8981 -75.5969 302° West 259 298 9,000 -250 Descending New York Center
Thu 10:41:37 PM 41.9344 -75.6750 302° West 259 298 9,000 -600 Level New York Center
Thu 10:42:37 PM 41.9803 -75.7231 322° Northwest 248 285 7,800 -1,300 Descending New York Center
Thu 10:43:37 PM 42.0442 -75.6886 22° Northeast 206 237 6,400 -1,700 Descending New York Center
Thu 10:44:37 PM 42.0792 -75.7528 306° West 183 211 4,400 -1,200 Descending New York Center
Thu 10:45:37 PM 42.0883 -75.8317 279° West 183 211 4,000 -300 Descending New York Center
Thu 10:46:37 PM 42.0978 -75.8994 281° West 188 216 3,800 -400 Descending New York Center
Thu 10:47:37 PM 42.1367 -75.9192 339° North 154 177 3,200 -650 Descending New York Center
Thu 10:48:37 PM 42.1647 -75.9439 327° Northwest 136 157 2,500 -600 Descending New York Center
Thu 10:49:37 PM 42.1847 -75.9594 330° Northwest 122 140 2,000 -500 Descending New York Center
Thu 10:51:00 PM 42.2000 -75.9667 North  Level FlightAware Approximate
Thu 10:58:00 PM 42.2084 -75.9796 North  Level Estimated

Login

Don't have an account? Register now (free) for customized features, flight alerts, and more!